Time;durP1;ratioP1;P1;durP2;ratioP2;P2;SDS_P1;SDS_P2;PMS_P1;PMS_P2;Temp;Humidity;BMP_temperature;BMP_pressure;BME280_temperature;BME280_humidity;BME280_pressure;Samples;Min_cycle;Max_cycle;Signal;HPM_P1;HPM_P2
2022/04/20 00:01:09;;;;;;;3.15;1.70;;;;;;;21.58;31.20;99438.72;5136287;27;20026;-65
2022/04/20 00:03:35;;;;;;;2.90;1.65;;;;;;;21.58;30.91;99450.28;5136503;27;20121;-66
2022/04/20 00:06:00;;;;;;;2.58;1.63;;;;;;;21.57;30.72;99451.31;5137267;27;20055;-66
2022/04/20 00:08:26;;;;;;;5.35;1.92;;;;;;;21.58;30.75;99444.09;5141361;27;20046;-66
2022/04/20 00:10:52;;;;;;;2.05;1.50;;;;;;;21.56;30.78;99433.50;5137147;27;20062;-66
2022/04/20 00:13:17;;;;;;;3.13;1.80;;;;;;;21.58;30.54;99439.53;5147600;27;20038;-66
2022/04/20 00:15:43;;;;;;;2.95;1.58;;;;;;;21.57;30.65;99443.25;5136551;27;20039;-65
2022/04/20 00:18:08;;;;;;;2.90;1.45;;;;;;;21.58;30.71;99428.75;5136607;27;20035;-65
2022/04/20 00:20:34;;;;;;;3.35;1.50;;;;;;;21.59;30.54;99429.59;5136420;27;20386;-65
2022/04/20 00:22:59;;;;;;;2.60;1.55;;;;;;;21.59;30.32;99438.50;5150612;27;20038;-64
2022/04/20 00:25:25;;;;;;;2.03;1.40;;;;;;;21.60;30.23;99431.31;5136211;27;20159;-67
2022/04/20 00:27:51;;;;;;;2.30;1.50;;;;;;;21.58;30.38;99434.13;5136151;27;20039;-66
2022/04/20 00:30:16;;;;;;;1.75;1.30;;;;;;;21.58;30.06;99436.84;5136306;27;20504;-67
2022/04/20 00:32:41;;;;;;;3.38;1.25;;;;;;;21.59;30.04;99426.91;5135684;27;20038;-67
2022/04/20 00:35:09;;;;;;;2.90;1.50;;;;;;;21.57;29.91;99429.78;5136337;27;20165;-67
2022/04/20 00:37:35;;;;;;;2.65;1.23;;;;;;;21.57;30.13;99432.47;5135608;27;20042;-67
2022/04/20 00:40:05;;;;;;;2.97;1.58;;;;;;;21.57;29.93;99428.97;5135660;27;20401;-67
2022/04/20 00:42:32;;;;;;;1.50;1.03;;;;;;;21.54;29.97;99432.03;5135549;27;20045;-65
2022/04/20 00:44:58;;;;;;;2.58;1.52;;;;;;;21.54;30.11;99434.72;5136092;27;20277;-65
2022/04/20 00:47:24;;;;;;;9.63;2.20;;;;;;;21.55;30.27;99433.72;5135635;27;20149;-65
2022/04/20 00:49:51;;;;;;;2.20;1.20;;;;;;;21.54;30.07;99446.34;5135317;27;20505;-67
2022/04/20 00:52:17;;;;;;;1.65;1.10;;;;;;;21.54;30.00;99448.19;5133938;27;20035;-70
2022/04/20 00:54:42;;;;;;;2.85;1.35;;;;;;;21.53;29.97;99443.84;5123535;27;20099;-69
2022/04/20 00:57:08;;;;;;;2.53;1.20;;;;;;;21.53;29.77;99443.84;5146506;27;20066;-69
2022/04/20 00:59:35;;;;;;;2.28;1.20;;;;;;;21.51;29.61;99444.03;5156180;27;20468;-71
2022/04/20 01:02:02;;;;;;;2.17;1.30;;;;;;;21.51;29.40;99438.66;5116561;27;20074;-71
2022/04/20 01:04:29;;;;;;;2.10;1.63;;;;;;;21.51;29.69;99435.97;5114306;28;20023;-70
2022/04/20 01:06:59;;;;;;;2.45;1.50;;;;;;;21.49;29.15;99433.44;5124465;27;20113;-70
2022/04/20 01:09:24;;;;;;;2.67;1.30;;;;;;;21.48;29.71;99437.16;5155874;27;20027;-68
2022/04/20 01:11:51;;;;;;;2.65;1.25;;;;;;;21.47;29.83;99434.69;5140743;27;20041;-74
2022/04/20 01:14:17;;;;;;;3.33;1.95;;;;;;;21.44;29.68;99432.38;5138877;27;20485;-69
2022/04/20 01:16:43;;;;;;;2.67;1.42;;;;;;;21.41;29.76;99438.13;5143898;27;20038;-69
2022/04/20 01:19:08;;;;;;;3.20;1.15;;;;;;;21.39;29.87;99445.59;5135061;27;20063;-69
2022/04/20 01:21:33;;;;;;;4.55;1.45;;;;;;;21.37;29.92;99440.41;5134997;27;20027;-69
2022/04/20 01:23:59;;;;;;;3.13;1.30;;;;;;;21.38;29.69;99446.63;5134817;27;20058;-68
2022/04/20 01:26:27;;;;;;;2.17;1.40;;;;;;;21.33;29.50;99453.41;5130786;27;20027;-70
2022/04/20 01:28:53;;;;;;;3.17;1.10;;;;;;;21.30;29.44;99452.97;5131958;27;20035;-69
2022/04/20 01:31:19;;;;;;;3.60;1.13;;;;;;;21.28;29.88;99461.22;5134751;27;20031;-68
2022/04/20 01:33:45;;;;;;;2.10;1.13;;;;;;;21.24;30.04;99448.34;5135395;27;20043;-68
2022/04/20 01:36:13;;;;;;;2.72;1.10;;;;;;;21.25;29.56;99453.53;5134607;27;20503;-68
2022/04/20 01:38:39;;;;;;;3.95;1.10;;;;;;;21.24;29.64;99449.19;5134490;27;20042;-68
2022/04/20 01:41:05;;;;;;;1.77;1.10;;;;;;;21.21;29.42;99438.81;5134286;27;20043;-68
2022/04/20 01:43:32;;;;;;;2.50;1.30;;;;;;;21.19;29.70;99440.88;5134722;27;20484;-68
2022/04/20 01:45:57;;;;;;;2.72;1.33;;;;;;;21.16;29.23;99436.72;5134361;27;20485;-68
2022/04/20 01:48:23;;;;;;;2.03;1.17;;;;;;;21.16;29.36;99433.16;5134164;27;20043;-68
2022/04/20 01:53:33;;;;;;;1.67;0.98;;;;;;;21.12;29.69;99434.56;5135051;27;20038;-69
2022/04/20 01:56:00;;;;;;;3.72;1.30;;;;;;;21.12;29.84;99434.56;5134369;27;20468;-68
2022/04/20 01:58:26;;;;;;;1.88;1.42;;;;;;;21.13;29.50;99420.09;5134312;27;20114;-69
2022/04/20 02:00:52;;;;;;;1.95;1.33;;;;;;;21.13;29.43;99430.84;5134263;27;20057;-68
2022/04/20 02:03:17;;;;;;;5.60;1.27;;;;;;;21.12;29.06;99423.81;5134424;27;20122;-68
2022/04/20 02:05:43;;;;;;;3.53;1.67;;;;;;;21.08;29.14;99427.94;5134368;27;20063;-68
2022/04/20 02:08:08;;;;;;;2.97;1.27;;;;;;;21.08;29.31;99426.06;5134608;27;20031;-69
2022/04/20 02:10:34;;;;;;;2.38;1.20;;;;;;;21.07;28.76;99418.19;5134318;27;20477;-69
2022/04/20 02:13:00;;;;;;;5.50;1.00;;;;;;;21.03;29.03;99418.56;5133809;27;20030;-68
2022/04/20 02:15:25;;;;;;;2.25;1.20;;;;;;;21.01;29.03;99407.16;5134252;27;20561;-69
2022/04/20 02:17:51;;;;;;;3.28;1.33;;;;;;;21.01;29.08;99412.53;5134601;27;20037;-69
2022/04/20 02:20:17;;;;;;;2.13;1.30;;;;;;;21.00;28.79;99410.88;5133194;27;20026;-68
2022/04/20 02:22:43;;;;;;;2.25;1.15;;;;;;;20.99;29.00;99414.59;5147050;27;20031;-68
2022/04/20 02:25:08;;;;;;;2.28;1.17;;;;;;;21.00;29.22;99410.88;5136876;27;20396;-68
2022/04/20 02:27:34;;;;;;;6.65;1.13;;;;;;;21.04;29.38;99417.56;5133771;27;20042;-68
2022/04/20 02:29:59;;;;;;;2.00;1.20;;;;;;;21.06;29.24;99420.03;5133728;27;20027;-68
2022/04/20 02:32:25;;;;;;;1.67;1.08;;;;;;;21.04;29.17;99411.31;5133516;27;20038;-68
2022/04/20 02:34:50;;;;;;;2.17;0.85;;;;;;;21.04;28.88;99420.25;5133995;27;20046;-68
2022/04/20 02:37:16;;;;;;;2.92;1.20;;;;;;;21.02;29.03;99411.53;5133641;27;20423;-69
2022/04/20 02:39:44;;;;;;;1.67;0.93;;;;;;;21.03;29.02;99409.66;5133899;27;20035;-69
2022/04/20 02:42:10;;;;;;;5.50;1.00;;;;;;;21.04;28.94;99414.84;5141000;27;20037;-68
2022/04/20 02:44:36;;;;;;;4.55;1.00;;;;;;;21.09;28.72;99410.78;5133900;27;20039;-68
2022/04/20 02:47:02;;;;;;;1.40;0.90;;;;;;;21.09;28.86;99418.84;5133604;27;20442;-68
2022/04/20 02:49:28;;;;;;;1.42;1.00;;;;;;;21.10;28.86;99421.31;5133250;27;20130;-67
2022/04/20 02:51:53;;;;;;;1.55;0.80;;;;;;;21.09;28.84;99411.59;5133574;27;20107;-68
2022/04/20 02:54:19;;;;;;;3.40;1.10;;;;;;;21.12;28.53;99413.91;5133821;28;20035;-68
2022/04/20 02:56:44;;;;;;;2.85;0.90;;;;;;;21.14;28.62;99427.16;5133939;27;20089;-68
2022/04/20 02:59:10;;;;;;;2.47;0.90;;;;;;;21.15;28.44;99436.88;5133979;28;20088;-68
2022/04/20 03:01:35;;;;;;;1.63;1.02;;;;;;;21.14;28.41;99424.44;5132479;27;20034;-68
2022/04/20 03:04:01;;;;;;;4.32;0.85;;;;;;;21.15;28.53;99423.44;5133638;28;20110;-68
2022/04/20 03:06:27;;;;;;;3.85;0.98;;;;;;;21.19;28.20;99427.41;5133529;27;20439;-68
2022/04/20 03:08:53;;;;;;;1.48;0.90;;;;;;;21.20;27.97;99426.38;5133252;28;20038;-68
2022/04/20 03:11:19;;;;;;;3.42;1.00;;;;;;;21.24;28.12;99433.06;5133268;27;20046;-68
2022/04/20 03:13:46;;;;;;;2.38;0.90;;;;;;;21.29;27.80;99430.59;5133124;27;20042;-68
2022/04/20 03:16:12;;;;;;;1.75;0.80;;;;;;;21.37;27.65;99436.88;5132919;27;20058;-69
2022/04/20 03:18:37;;;;;;;4.75;1.23;;;;;;;21.41;27.83;99438.13;5133192;28;20070;-69
2022/04/20 03:21:03;;;;;;;2.90;0.90;;;;;;;21.46;27.29;99428.47;5130990;27;20438;-69
2022/04/20 03:23:31;;;;;;;2.28;1.30;;;;;;;21.52;25.63;99420.63;5130841;27;20090;-69
2022/04/20 03:25:57;;;;;;;4.80;1.10;;;;;;;21.54;25.63;99432.88;5133528;27;20038;-69
2022/04/20 03:28:23;;;;;;;1.58;0.85;;;;;;;21.58;25.79;99433.31;5152339;27;20035;-69
2022/04/20 03:30:48;;;;;;;2.13;0.75;;;;;;;21.62;25.85;99427.38;5132833;27;20033;-69
2022/04/20 03:33:14;;;;;;;1.98;0.88;;;;;;;21.70;25.55;99433.63;5136494;27;20031;-69
2022/04/20 03:35:40;;;;;;;3.17;0.90;;;;;;;21.78;24.78;99425.41;5137162;27;20401;-69
2022/04/20 03:38:07;;;;;;;2.25;1.05;;;;;;;21.88;24.73;99427.75;5137390;27;20049;-69
2022/04/20 03:40:33;;;;;;;2.15;0.98;;;;;;;22.04;24.39;99430.13;5121082;27;20127;-69
2022/04/20 03:42:58;;;;;;;3.70;0.80;;;;;;;22.15;23.80;99434.13;5136683;27;20066;-69
2022/04/20 03:45:24;;;;;;;2.95;1.05;;;;;;;22.28;23.87;99416.38;5137068;27;20084;-70
2022/04/20 03:47:49;;;;;;;2.70;1.00;;;;;;;22.47;23.52;99423.72;5136349;27;20437;-70
2022/04/20 03:50:15;;;;;;;7.45;1.10;;;;;;;22.65;23.53;99425.84;5119201;27;20138;-69
2022/04/20 03:52:40;;;;;;;19.00;1.95;;;;;;;22.77;22.97;99436.06;5132576;27;20031;-70
2022/04/20 03:55:07;;;;;;;3.28;0.93;;;;;;;22.83;22.42;99424.44;5136779;27;20126;-69
2022/04/20 03:57:32;;;;;;;3.35;0.93;;;;;;;22.95;21.74;99419.28;5135618;27;20039;-70
2022/04/20 03:59:58;;;;;;;4.88;0.90;;;;;;;23.00;22.50;99423.03;5136940;27;20096;-70
2022/04/20 04:02:24;;;;;;;2.90;0.85;;;;;;;23.11;22.76;99416.19;5136125;27;20401;-69
2022/04/20 04:04:49;;;;;;;11.15;1.30;;;;;;;23.23;22.47;99418.31;5142871;27;20035;-68
2022/04/20 04:07:15;;;;;;;2.10;0.90;;;;;;;23.32;22.02;99422.47;5123980;27;20039;-69
2022/04/20 04:09:40;;;;;;;1.73;1.02;;;;;;;23.37;22.01;99419.97;5127119;27;20027;-69
2022/04/20 04:12:07;;;;;;;3.15;1.02;;;;;;;23.44;21.69;99407.31;5136477;27;20093;-69
2022/04/20 04:14:40;;;;;;;4.10;1.05;;;;;;;23.55;21.37;99402.31;5136131;27;20410;-69
2022/04/20 04:17:06;;;;;;;6.70;1.20;;;;;;;23.69;21.76;99411.22;5135766;27;20043;-68
2022/04/20 04:19:33;;;;;;;2.83;0.90;;;;;;;23.81;21.67;99408.72;5135770;27;20023;-70
2022/04/20 04:22:00;;;;;;;3.08;0.90;;;;;;;23.91;22.03;99409.94;5136282;27;20038;-69
2022/04/20 04:24:34;;;;;;;2.83;1.00;;;;;;;24.01;21.42;99398.72;5141160;27;20469;-68
2022/04/20 04:27:02;;;;;;;2.78;1.00;;;;;;;24.08;21.57;99404.94;5132978;27;20042;-68
2022/04/20 04:29:28;;;;;;;1.70;0.95;;;;;;;24.16;20.98;99403.88;5136376;27;20031;-68
2022/04/20 04:31:54;;;;;;;4.65;0.90;;;;;;;24.22;20.47;99403.03;5135607;27;20103;-68
2022/04/20 04:34:20;;;;;;;7.35;1.00;;;;;;;24.27;20.57;99399.66;5136110;27;20053;-69
2022/04/20 04:36:46;;;;;;;3.95;0.98;;;;;;;24.37;20.63;99410.84;5132758;27;20397;-69
2022/04/20 04:39:13;;;;;;;6.70;0.95;;;;;;;24.43;20.52;99397.53;5115385;28;20031;-69
2022/04/20 04:41:39;;;;;;;7.82;1.05;;;;;;;24.53;20.51;99406.00;5119312;27;20034;-68
2022/04/20 04:44:04;;;;;;;5.28;1.00;;;;;;;24.63;20.28;99416.34;5135929;27;20084;-68
2022/04/20 04:49:14;;;;;;;2.10;1.15;;;;;;;24.86;20.13;99428.53;5115473;28;20050;-68
2022/04/20 04:51:40;;;;;;;3.78;1.10;;;;;;;24.95;19.57;99433.47;5129479;27;20031;-69
2022/04/20 04:54:05;;;;;;;6.72;1.20;;;;;;;25.07;19.47;99428.19;5128398;27;20030;-69
2022/04/20 04:56:31;;;;;;;2.67;1.42;;;;;;;25.23;19.49;99426.81;5119591;27;20054;-69
2022/04/20 04:58:56;;;;;;;3.28;1.08;;;;;;;25.41;20.13;99431.50;5118486;27;20033;-69
2022/04/20 05:01:21;;;;;;;4.82;1.40;;;;;;;25.56;20.15;99428.44;5134894;27;20451;-69
2022/04/20 05:03:48;;;;;;;9.02;1.20;;;;;;;25.74;19.93;99438.50;5127148;27;20482;-69
2022/04/20 05:06:13;;;;;;;6.72;1.23;;;;;;;25.86;19.14;99444.00;5127356;27;20154;-69
2022/04/20 05:08:39;;;;;;;6.38;1.48;;;;;;;25.95;18.69;99449.97;5135208;27;20055;-70
2022/04/20 05:11:04;;;;;;;4.63;0.90;;;;;;;26.04;18.67;99451.31;5135409;27;20117;-70
2022/04/20 05:13:30;;;;;;;1.45;0.70;;;;;;;26.13;18.79;99453.78;5135388;27;20060;-70
2022/04/20 05:15:55;;;;;;;4.90;1.17;;;;;;;26.20;18.63;99460.78;5148539;27;20035;-69
2022/04/20 05:18:21;;;;;;;8.35;1.10;;;;;;;26.27;18.21;99457.16;5135249;27;20451;-70
2022/04/20 05:20:46;;;;;;;10.90;1.10;;;;;;;26.31;18.33;99458.38;5133336;27;20062;-69
2022/04/20 05:23:12;;;;;;;7.63;1.75;;;;;;;26.41;17.93;99452.41;5135496;27;20465;-70
2022/04/20 05:25:37;;;;;;;2.80;1.20;;;;;;;26.43;17.59;99448.41;5134542;27;20079;-69
2022/04/20 05:28:03;;;;;;;7.30;1.00;;;;;;;26.43;18.18;99458.44;5126345;27;20494;-69
2022/04/20 05:30:29;;;;;;;6.03;1.00;;;;;;;26.45;17.51;99461.78;5125487;27;20046;-70
2022/04/20 05:32:54;;;;;;;9.40;1.08;;;;;;;26.46;17.77;99461.53;5132701;27;20078;-70
2022/04/20 05:35:20;;;;;;;6.32;0.90;;;;;;;26.52;18.16;99462.50;5133944;27;20031;-70
2022/04/20 05:43:13;;;;;;;3.33;0.80;;;;;;;26.61;17.32;99447.59;5132972;27;20034;-70
2022/04/20 05:45:39;;;;;;;2.33;0.73;;;;;;;26.56;16.98;99460.16;5116071;27;20039;-70
2022/04/20 05:48:04;;;;;;;2.35;0.68;;;;;;;26.58;16.78;99460.75;5120663;27;20085;-70
2022/04/20 05:50:30;;;;;;;2.60;0.90;;;;;;;26.47;17.18;99456.94;5132408;27;20371;-69
2022/04/20 05:52:55;;;;;;;9.73;1.40;;;;;;;26.30;17.12;99468.41;5130775;27;20084;-69
2022/04/20 05:55:21;;;;;;;2.70;0.80;;;;;;;26.04;17.46;99464.06;5122196;27;20027;-69
2022/04/20 05:57:49;;;;;;;6.30;1.00;;;;;;;25.78;17.69;99474.13;5132034;27;20027;-70
2022/04/20 06:00:15;;;;;;;6.15;0.82;;;;;;;25.64;17.26;99470.69;5122749;27;20027;-70
2022/04/20 06:02:41;;;;;;;1.30;0.70;;;;;;;25.50;17.08;99474.56;5131118;27;20038;-70
2022/04/20 06:05:08;;;;;;;3.83;1.13;;;;;;;25.34;17.44;99484.84;5134582;27;20477;-71
2022/04/20 06:07:34;;;;;;;8.48;1.42;;;;;;;25.25;17.51;99475.34;5132537;27;20076;-70
2022/04/20 06:09:59;;;;;;;5.93;0.82;;;;;;;25.20;17.64;99477.88;5132595;27;20027;-71
2022/04/20 06:12:25;;;;;;;3.28;1.17;;;;;;;25.16;17.57;99496.44;5131884;27;20027;-70
2022/04/20 06:14:51;;;;;;;8.27;1.50;;;;;;;25.12;17.98;99496.06;5133347;27;20088;-70
2022/04/20 06:17:16;;;;;;;5.88;0.90;;;;;;;25.08;18.45;99493.97;5133848;27;20031;-70
2022/04/20 06:19:42;;;;;;;4.30;1.20;;;;;;;25.09;18.51;99498.34;5134076;27;20385;-69
2022/04/20 06:22:07;;;;;;;4.90;1.17;;;;;;;25.07;18.47;99503.16;5143137;27;20046;-70
2022/04/20 06:24:33;;;;;;;6.18;0.90;;;;;;;25.04;18.84;99500.88;5137442;27;20039;-69
2022/04/20 06:26:58;;;;;;;3.80;0.98;;;;;;;25.02;18.70;99489.44;5115284;27;20042;-69
2022/04/20 06:29:24;;;;;;;5.82;1.10;;;;;;;24.96;18.94;99505.50;5133800;27;20484;-70
2022/04/20 06:31:51;;;;;;;7.07;0.82;;;;;;;24.97;19.32;99500.94;5130172;27;20512;-70
2022/04/20 06:34:17;;;;;;;3.63;0.75;;;;;;;24.93;18.75;99503.22;5131598;27;20042;-70
2022/04/20 06:36:43;;;;;;;4.05;1.02;;;;;;;24.87;19.11;99492.41;5122628;27;20498;-70
2022/04/20 06:39:09;;;;;;;3.95;0.88;;;;;;;24.82;19.98;99504.75;5113114;28;20039;-69
2022/04/20 06:41:34;;;;;;;6.05;1.00;;;;;;;24.79;19.67;99491.63;5131377;27;20113;-70
2022/04/20 06:44:00;;;;;;;5.53;0.98;;;;;;;24.75;18.90;99500.41;5133855;27;20511;-70
2022/04/20 06:46:25;;;;;;;7.18;1.20;;;;;;;24.68;19.37;99501.22;5129801;27;20035;-71
2022/04/20 06:48:51;;;;;;;3.92;0.98;;;;;;;24.62;18.73;99490.44;5114025;28;20055;-71
2022/04/20 06:51:16;;;;;;;4.93;0.88;;;;;;;24.55;18.44;99476.13;5116446;28;20398;-71
2022/04/20 06:59:10;;;;;;;5.82;0.98;;;;;;;24.37;18.62;99467.63;5127731;28;20534;-70
2022/04/20 07:01:36;;;;;;;2.00;0.70;;;;;;;24.32;19.35;99478.28;5112211;28;20034;-70
2022/04/20 07:04:01;;;;;;;2.03;0.65;;;;;;;24.31;19.58;99462.25;5115061;28;20043;-70
2022/04/20 07:06:27;;;;;;;2.72;0.80;;;;;;;24.30;19.41;99458.72;5127085;27;20042;-70
2022/04/20 07:08:53;;;;;;;7.97;1.00;;;;;;;24.31;19.00;99460.38;5129766;27;20032;-70
2022/04/20 07:11:19;;;;;;;3.33;0.70;;;;;;;24.29;18.84;99440.84;5132763;27;20031;-70
2022/04/20 07:13:46;;;;;;;6.43;1.02;;;;;;;24.29;19.27;99431.88;5137654;27;20489;-71
2022/04/20 07:16:12;;;;;;;11.10;1.23;;;;;;;24.25;19.28;99434.19;5122398;27;20119;-70
2022/04/20 07:18:37;;;;;;;2.08;0.82;;;;;;;24.25;19.40;99442.31;5134418;27;20110;-70
2022/04/20 07:21:03;;;;;;;5.25;1.25;;;;;;;24.27;19.70;99448.34;5134096;27;20509;-69
2022/04/20 07:23:29;;;;;;;4.72;0.93;;;;;;;24.30;19.00;99450.63;5125472;27;20030;-70
2022/04/20 07:25:55;;;;;;;5.82;0.90;;;;;;;24.26;18.97;99452.06;5117803;27;20077;-70
2022/04/20 07:28:20;;;;;;;4.20;0.93;;;;;;;24.17;19.15;99448.78;5130144;27;20486;-70
2022/04/20 07:30:46;;;;;;;3.28;0.98;;;;;;;24.14;19.40;99449.19;5125439;27;20093;-69
2022/04/20 07:33:15;;;;;;;2.17;0.80;;;;;;;24.16;19.30;99441.72;5135601;27;20054;-71
2022/04/20 07:35:43;;;;;;;2.60;0.77;;;;;;;24.15;19.80;99452.75;5126523;27;20097;-69
2022/04/20 07:38:08;;;;;;;4.72;0.93;;;;;;;24.15;19.88;99458.97;5117887;27;20108;-70
2022/04/20 07:40:34;;;;;;;2.38;1.10;;;;;;;24.15;19.61;99456.25;5128073;27;20486;-69
2022/04/20 07:42:59;;;;;;;2.40;0.80;;;;;;;24.19;18.98;99451.28;5124293;27;20036;-70
2022/04/20 07:45:25;;;;;;;3.15;0.68;;;;;;;24.16;18.70;99454.41;5116575;28;20090;-70
2022/04/20 07:47:55;;;;;;;10.00;0.98;;;;;;;24.10;18.37;99445.28;5131463;27;20050;-70
2022/04/20 07:50:23;;;;;;;2.22;0.60;;;;;;;24.05;20.05;99448.59;5134481;27;20505;-71
2022/04/20 07:52:50;;;;;;;2.20;0.68;;;;;;;24.09;20.67;99449.03;5134401;27;20035;-70
2022/04/20 07:55:21;;;;;;;4.82;0.65;;;;;;;24.13;20.78;99442.13;5133244;27;20040;-70
2022/04/20 07:57:49;;;;;;;8.73;0.90;;;;;;;24.17;20.82;99437.16;5133403;27;20117;-70
2022/04/20 08:00:15;;;;;;;13.68;1.10;;;;;;;24.21;20.60;99439.22;5131035;27;20059;-69
2022/04/20 08:02:42;;;;;;;4.68;0.90;;;;;;;24.23;20.46;99437.13;5128897;27;20037;-69
2022/04/20 08:05:08;;;;;;;3.00;1.00;;;;;;;24.23;19.90;99437.13;5129185;27;20034;-70
2022/04/20 08:07:34;;;;;;;2.08;0.57;;;;;;;24.26;20.34;99438.56;5129791;27;20054;-70
2022/04/20 08:10:01;;;;;;;2.55;0.70;;;;;;;24.25;19.16;99426.09;5131299;27;20516;-70
2022/04/20 08:12:29;;;;;;;10.77;0.70;;;;;;;24.22;19.60;99434.63;5125034;27;20038;-69
2022/04/20 08:14:55;;;;;;;4.10;0.77;;;;;;;24.20;18.88;99429.44;5118603;27;20489;-69
2022/04/20 08:17:20;;;;;;;6.63;0.85;;;;;;;24.18;20.36;99423.41;5126107;27;20031;-69
2022/04/20 08:19:46;;;;;;;11.25;1.05;;;;;;;24.23;20.42;99429.00;5133850;27;20426;-69
2022/04/20 08:22:15;;;;;;;4.10;0.90;;;;;;;24.25;20.10;99426.09;5132466;27;20038;-70
2022/04/20 08:24:45;;;;;;;9.60;0.73;;;;;;;24.28;19.54;99427.53;5134504;27;20039;-70
2022/04/20 08:27:11;;;;;;;4.38;1.00;;;;;;;24.29;19.84;99429.19;5128282;27;20397;-70
2022/04/20 08:29:37;;;;;;;5.00;0.77;;;;;;;24.16;19.50;99430.91;5116342;27;20035;-73
2022/04/20 08:32:02;;;;;;;7.00;0.70;;;;;;;23.93;19.51;99429.47;5126980;27;20043;-72
2022/04/20 08:34:28;;;;;;;4.78;0.70;;;;;;;23.74;19.06;99414.97;5125423;27;20043;-72
2022/04/20 08:36:53;;;;;;;5.45;0.75;;;;;;;23.53;20.01;99407.09;5122482;27;20031;-73
2022/04/20 08:39:19;;;;;;;7.57;1.15;;;;;;;23.32;19.49;99400.84;5116605;27;20032;-73
2022/04/20 08:41:49;;;;;;;6.53;1.23;;;;;;;23.13;19.22;99416.00;5119984;27;20512;-72
2022/04/20 08:44:25;;;;;;;4.05;1.10;;;;;;;23.07;19.32;99412.25;5133775;27;20035;-70
2022/04/20 08:46:53;;;;;;;2.85;0.70;;;;;;;22.97;19.21;99425.31;5119528;27;20485;-71
2022/04/20 08:49:19;;;;;;;3.97;1.00;;;;;;;22.81;18.99;99419.28;5116065;27;20083;-72
2022/04/20 08:54:29;;;;;;;4.50;0.68;;;;;;;22.58;19.22;99408.84;5124558;27;20115;-72
2022/04/20 08:59:41;;;;;;;2.00;0.75;;;;;;;22.34;18.67;99410.16;5121177;27;20525;-71
2022/04/20 09:02:08;;;;;;;3.72;0.65;;;;;;;22.30;18.62;99415.13;5122894;27;20054;-71
2022/04/20 09:04:34;;;;;;;7.28;0.90;;;;;;;22.29;18.43;99426.09;5129845;27;20033;-70
2022/04/20 09:06:59;;;;;;;3.67;1.08;;;;;;;22.21;18.94;99422.56;5132160;27;20036;-70
2022/04/20 09:09:29;;;;;;;8.05;1.27;;;;;;;22.14;19.01;99421.66;5133571;27;20482;-69
2022/04/20 09:11:59;;;;;;;5.78;0.88;;;;;;;22.09;18.98;99426.84;5134463;27;20031;-72
2022/04/20 09:14:31;;;;;;;8.10;1.00;;;;;;;22.03;19.41;99425.78;5101421;28;20405;-71
2022/04/20 09:16:56;;;;;;;4.53;0.90;;;;;;;22.00;19.60;99425.31;5121642;27;20091;-70
2022/04/20 09:19:26;;;;;;;2.83;0.90;;;;;;;21.97;19.15;99436.53;5133245;27;20485;-71
2022/04/20 09:21:52;;;;;;;1.83;0.50;;;;;;;21.95;18.99;99439.41;5123638;27;20420;-71
2022/04/20 09:24:17;;;;;;;2.53;0.90;;;;;;;21.94;19.09;99432.34;5120996;27;20034;-72
2022/04/20 09:26:57;;;;;;;6.07;0.80;;;;;;;21.93;19.28;99423.44;5133998;27;20027;-70
2022/04/20 09:29:23;;;;;;;1.42;0.90;;;;;;;21.97;19.48;99431.13;5132846;27;20054;-70
2022/04/20 09:31:51;;;;;;;2.10;0.70;;;;;;;21.93;19.25;99428.81;5124872;27;20044;-70
2022/04/20 09:34:29;;;;;;;3.35;0.80;;;;;;;21.95;19.48;99424.06;5126075;27;20065;-72
2022/04/20 09:36:55;;;;;;;1.08;0.70;;;;;;;21.93;19.30;99426.13;5132611;27;20059;-71
2022/04/20 09:39:21;;;;;;;5.18;0.73;;;;;;;21.88;19.37;99425.06;5134085;27;20027;-71
2022/04/20 09:42:00;;;;;;;2.75;0.70;;;;;;;21.82;19.20;99418.63;5132842;27;20056;-71
2022/04/20 09:44:32;;;;;;;2.15;0.85;;;;;;;21.71;19.98;99405.69;5133240;27;20502;-72
2022/04/20 09:50:00;;;;;;;3.65;0.82;;;;;;;21.76;19.54;99416.69;5132445;27;20061;-70
2022/04/20 09:52:35;;;;;;;5.70;0.60;;;;;;;21.77;19.61;99423.75;5132140;27;20031;-70
2022/04/20 09:55:01;;;;;;;1.58;0.88;;;;;;;21.75;20.17;99415.03;5132497;27;20407;-71
2022/04/20 09:57:28;;;;;;;2.08;0.60;;;;;;;21.76;19.79;99414.81;5133685;27;20055;-71
2022/04/20 10:00:03;;;;;;;1.63;0.70;;;;;;;21.79;20.03;99422.50;5132099;27;20027;-73
2022/04/20 10:02:30;;;;;;;5.35;0.80;;;;;;;21.81;19.92;99414.25;5132824;27;20439;-70
2022/04/20 10:04:56;;;;;;;2.95;0.63;;;;;;;21.80;19.48;99416.09;5134214;27;20124;-70
2022/04/20 10:07:22;;;;;;;4.93;1.02;;;;;;;21.81;19.10;99430.41;5133097;27;20034;-70
2022/04/20 10:09:47;;;;;;;2.97;0.50;;;;;;;21.80;18.96;99409.91;5139080;27;20447;-71
2022/04/20 10:12:15;;;;;;;5.10;0.95;;;;;;;21.84;19.32;99418.41;5120097;27;20030;-71
2022/04/20 10:17:28;;;;;;;1.90;0.75;;;;;;;21.93;19.27;99412.66;5142870;27;20083;-70
2022/04/20 10:19:54;;;;;;;6.63;1.35;;;;;;;21.92;19.68;99416.38;5133596;27;20037;-68
2022/04/20 10:22:21;;;;;;;1.40;0.70;;;;;;;21.94;19.11;99418.88;5127948;27;20055;-68
2022/04/20 10:24:51;;;;;;;5.20;1.40;;;;;;;21.94;19.69;99419.72;5133731;27;20062;-69
2022/04/20 10:27:32;;;;;;;2.58;1.23;;;;;;;22.00;19.79;99433.41;5132717;27;20059;-71
2022/04/20 10:30:01;;;;;;;2.80;0.88;;;;;;;22.00;19.83;99422.63;5125377;27;20838;-68
2022/04/20 10:32:37;;;;;;;3.38;0.70;;;;;;;22.01;19.47;99418.91;5132204;27;20133;-71
2022/04/20 10:35:04;;;;;;;4.88;1.58;;;;;;;22.04;19.30;99405.91;5133592;27;20042;-71
2022/04/20 10:37:30;;;;;;;8.50;1.15;;;;;;;22.07;19.96;99412.75;5130144;27;20035;-71
2022/04/20 10:40:17;;;;;;;10.63;1.00;;;;;;;22.16;20.59;99413.41;5139615;27;20031;-69
2022/04/20 10:42:44;;;;;;;4.05;1.00;;;;;;;22.19;20.26;99416.53;5128846;27;20057;-72
2022/04/20 10:45:11;;;;;;;4.85;1.55;;;;;;;22.23;19.94;99393.53;5139747;27;20041;-70
2022/04/20 10:47:40;;;;;;;5.70;1.33;;;;;;;22.19;20.12;99402.22;5133551;27;20035;-71
2022/04/20 10:50:23;;;;;;;3.70;1.10;;;;;;;22.19;19.88;99399.53;5129340;27;20136;-71
2022/04/20 10:52:56;;;;;;;5.40;1.10;;;;;;;22.16;19.82;99408.84;5112784;28;20067;-71
2022/04/20 10:55:31;;;;;;;5.53;0.88;;;;;;;22.16;20.63;99408.00;5116013;28;20528;-69
2022/04/20 10:58:01;;;;;;;3.47;1.42;;;;;;;22.17;20.88;99407.81;5128878;28;20083;-71
2022/04/20 11:00:33;;;;;;;5.75;0.98;;;;;;;22.18;20.07;99400.56;5131216;27;20359;-68
2022/04/20 11:03:03;;;;;;;;;;;;;;;22.11;20.32;99400.53;5133870;28;20481;-69
2022/04/20 11:05:29;;;;;;;5.60;0.90;;;;;;;22.08;20.06;99419.78;5132995;27;20006;-70
2022/04/20 11:08:04;;;;;;;3.72;1.00;;;;;;;22.12;19.68;99401.34;5134068;28;20167;-71
2022/04/20 11:10:32;;;;;;;1.77;0.90;;;;;;;22.09;19.48;99398.03;5145289;27;20031;-70
2022/04/20 11:19:05;;;;;;;6.13;1.00;;;;;;;22.15;19.48;99396.38;5133573;27;20062;-71
2022/04/20 11:21:31;;;;;;;7.63;1.20;;;;;;;22.16;19.52;99389.16;5124578;27;20027;-70
2022/04/20 11:24:07;;;;;;;2.70;1.08;;;;;;;22.15;19.82;99401.78;5114246;28;20490;-69
2022/04/20 11:26:51;;;;;;;3.08;1.15;;;;;;;22.16;19.81;99378.38;5126893;27;20095;-69
2022/04/20 11:29:21;;;;;;;3.92;1.25;;;;;;;22.15;19.66;99376.72;5133260;28;20054;-69
2022/04/20 11:31:54;;;;;;;2.92;1.20;;;;;;;22.14;19.70;99378.56;5132405;27;20095;-69
2022/04/20 11:34:20;;;;;;;6.35;1.30;;;;;;;22.12;19.42;99386.03;5132427;27;20123;-71
2022/04/20 11:36:54;;;;;;;5.22;1.60;;;;;;;22.14;20.20;99375.88;5128707;27;20057;-71
2022/04/20 11:39:21;;;;;;;12.82;5.47;;;;;;;22.16;19.79;99376.50;5122333;28;20517;-72
2022/04/20 11:42:07;;;;;;;7.43;3.70;;;;;;;22.18;19.78;99396.00;5119164;28;20035;-70
2022/04/20 11:44:39;;;;;;;6.53;2.45;;;;;;;22.20;19.46;99367.00;5130776;28;20039;-70
2022/04/20 11:47:07;;;;;;;4.47;1.08;;;;;;;22.24;19.65;99370.09;5121216;28;20035;-70
2022/04/20 11:49:40;;;;;;;2.35;1.15;;;;;;;22.28;19.60;99368.69;5127889;27;20040;-70
2022/04/20 11:52:08;;;;;;;5.50;1.45;;;;;;;22.29;20.00;99366.78;5129603;27;20039;-71
2022/04/20 11:54:34;;;;;;;2.05;0.80;;;;;;;22.32;19.94;99369.09;5125035;27;20119;-70
2022/04/20 11:57:00;;;;;;;4.13;1.45;;;;;;;22.37;20.27;99364.75;5128037;27;20042;-72
2022/04/20 11:59:27;;;;;;;2.10;0.90;;;;;;;22.40;19.75;99353.56;5133058;27;20401;-69
2022/04/20 12:01:54;;;;;;;2.55;1.23;;;;;;;22.39;20.13;99341.13;5133924;27;20031;-70
2022/04/20 12:04:22;;;;;;;2.50;1.25;;;;;;;22.39;19.89;99346.53;5130239;27;20353;-70
2022/04/20 12:06:53;;;;;;;4.68;1.20;;;;;;;22.37;19.71;99331.59;5131054;27;20393;-71